Terminal Aerodrome Forecast
Issued by NWS

Home | Current Version | Previous Version | Text Only | Print | Product List | Glossary On
Versions: 1 2 3 4 5 6 7 8 9 10 11 12 13 14 15 16 17 18
483
FTUS42 KFFC 252330
TAFRYY
TAF
KRYY 252330Z 2600/2624 24003KT 6SM -SHRA OVC080
     FM260300 04003KT 4SM -SHRA SCT012 OVC060
     FM260700 05004KT 3SM SHRA OVC007
     FM261400 02004KT 6SM -SHRA SCT007 BKN012
     FM261600 03005KT P6SM SCT012 BKN025
     FM262000 32006KT P6SM BKN035
     FM262300 33006KT P6SM SCT200=

USA.gov is the U.S. government's official web portal to all federal, state and local government web resources and services.